Xuzhou, China
Current Conditions -  °F | °C
As of 11:00 PM on Saturday 25 Oct 2014 (Local Time) from ZSOF Reporting Station
Clear Clear  
Wind Chill: 64°   Ceiling: Unl
Heat Index: 64°   Visibility: 4mi
Dew Point: 55°   Wind: 7mph
Humidity: 73%   Direction: 160°SSE
Pressure: 30"   Gusts: NA
Location:  34.27°N, 117.18°E
Report Text: ZSOF 251500Z 16003MPS 6000 NSC 18/13 Q1016 NOSIG
Loading
Personal Weather Stations






























Interactive Weather Map
Tropical Storm Tracking
New forecast layout! Learn more

10-Day Weather Forecast

Advertisements
Track Severe Weather on mobile